sensor_id;sensor_type;location;lat;lon;timestamp;temperature;humidity
78438;SHT31;67736;51.978;5.656;2023-06-14T00:01:04;22.2;34.8
78438;SHT31;67736;51.978;5.656;2023-06-14T00:03:34;22.1;34.8
78438;SHT31;67736;51.978;5.656;2023-06-14T00:06:04;22.1;34.8
78438;SHT31;67736;51.978;5.656;2023-06-14T00:08:34;22.0;35.0
78438;SHT31;67736;51.978;5.656;2023-06-14T00:11:04;22.0;35.1
78438;SHT31;67736;51.978;5.656;2023-06-14T00:13:35;22.0;35.3
78438;SHT31;67736;51.978;5.656;2023-06-14T00:16:05;21.9;35.3
78438;SHT31;67736;51.978;5.656;2023-06-14T00:18:35;21.9;35.5
78438;SHT31;67736;51.978;5.656;2023-06-14T00:21:05;21.9;35.6
78438;SHT31;67736;51.978;5.656;2023-06-14T00:23:36;21.9;35.6
78438;SHT31;67736;51.978;5.656;2023-06-14T00:26:05;21.8;35.8
78438;SHT31;67736;51.978;5.656;2023-06-14T00:28:35;21.8;35.7
78438;SHT31;67736;51.978;5.656;2023-06-14T00:31:04;21.8;35.8
78438;SHT31;67736;51.978;5.656;2023-06-14T00:33:34;21.7;36.0
78438;SHT31;67736;51.978;5.656;2023-06-14T00:36:04;21.7;35.9
78438;SHT31;67736;51.978;5.656;2023-06-14T00:38:33;21.7;36.0
78438;SHT31;67736;51.978;5.656;2023-06-14T00:41:03;21.7;36.1
78438;SHT31;67736;51.978;5.656;2023-06-14T00:43:33;21.6;36.2
78438;SHT31;67736;51.978;5.656;2023-06-14T00:46:04;21.6;36.3
78438;SHT31;67736;51.978;5.656;2023-06-14T00:48:34;21.6;36.4
78438;SHT31;67736;51.978;5.656;2023-06-14T00:51:05;21.6;36.5
78438;SHT31;67736;51.978;5.656;2023-06-14T00:53:35;21.5;36.7
78438;SHT31;67736;51.978;5.656;2023-06-14T00:56:07;21.5;36.7
78438;SHT31;67736;51.978;5.656;2023-06-14T00:58:39;21.5;36.9
78438;SHT31;67736;51.978;5.656;2023-06-14T01:01:08;21.5;36.8
78438;SHT31;67736;51.978;5.656;2023-06-14T01:03:38;21.5;36.8
78438;SHT31;67736;51.978;5.656;2023-06-14T01:06:18;21.4;36.9
78438;SHT31;67736;51.978;5.656;2023-06-14T01:09:06;21.4;37.0
78438;SHT31;67736;51.978;5.656;2023-06-14T01:11:44;21.4;37.0
78438;SHT31;67736;51.978;5.656;2023-06-14T01:14:16;21.3;37.0
78438;SHT31;67736;51.978;5.656;2023-06-14T01:16:47;21.3;37.0
78438;SHT31;67736;51.978;5.656;2023-06-14T01:19:20;21.2;37.1
78438;SHT31;67736;51.978;5.656;2023-06-14T01:21:53;21.2;37.3
78438;SHT31;67736;51.978;5.656;2023-06-14T01:24:23;21.2;37.4
78438;SHT31;67736;51.978;5.656;2023-06-14T01:26:55;21.1;37.6
78438;SHT31;67736;51.978;5.656;2023-06-14T01:29:27;21.1;37.6
78438;SHT31;67736;51.978;5.656;2023-06-14T01:32:00;21.1;37.7
78438;SHT31;67736;51.978;5.656;2023-06-14T01:34:31;21.0;37.7
78438;SHT31;67736;51.978;5.656;2023-06-14T01:37:02;21.0;37.8
78438;SHT31;67736;51.978;5.656;2023-06-14T01:39:32;20.9;37.9
78438;SHT31;67736;51.978;5.656;2023-06-14T01:42:04;20.9;38.0
78438;SHT31;67736;51.978;5.656;2023-06-14T01:44:36;20.9;38.0
78438;SHT31;67736;51.978;5.656;2023-06-14T01:47:06;20.8;38.1
78438;SHT31;67736;51.978;5.656;2023-06-14T01:49:36;20.8;38.3
78438;SHT31;67736;51.978;5.656;2023-06-14T01:52:09;20.8;38.2
78438;SHT31;67736;51.978;5.656;2023-06-14T01:54:39;20.7;38.4
78438;SHT31;67736;51.978;5.656;2023-06-14T01:57:10;20.7;38.7
78438;SHT31;67736;51.978;5.656;2023-06-14T01:59:41;20.6;38.6
78438;SHT31;67736;51.978;5.656;2023-06-14T02:02:15;20.6;38.7
78438;SHT31;67736;51.978;5.656;2023-06-14T02:04:45;20.6;38.8
78438;SHT31;67736;51.978;5.656;2023-06-14T02:07:17;20.5;38.8
78438;SHT31;67736;51.978;5.656;2023-06-14T02:09:47;20.5;39.0
78438;SHT31;67736;51.978;5.656;2023-06-14T02:12:17;20.5;39.0
78438;SHT31;67736;51.978;5.656;2023-06-14T02:14:46;20.5;39.0
78438;SHT31;67736;51.978;5.656;2023-06-14T02:17:16;20.4;39.0
78438;SHT31;67736;51.978;5.656;2023-06-14T02:19:45;20.4;39.2
78438;SHT31;67736;51.978;5.656;2023-06-14T02:22:15;20.4;39.2
78438;SHT31;67736;51.978;5.656;2023-06-14T02:24:44;20.4;39.3
78438;SHT31;67736;51.978;5.656;2023-06-14T02:27:14;20.3;39.4
78438;SHT31;67736;51.978;5.656;2023-06-14T02:29:44;20.3;39.5
78438;SHT31;67736;51.978;5.656;2023-06-14T02:32:13;20.3;39.5
78438;SHT31;67736;51.978;5.656;2023-06-14T02:34:43;20.3;39.6
78438;SHT31;67736;51.978;5.656;2023-06-14T02:37:17;20.3;39.6
78438;SHT31;67736;51.978;5.656;2023-06-14T02:39:46;20.2;39.7
78438;SHT31;67736;51.978;5.656;2023-06-14T02:42:16;20.2;39.8
78438;SHT31;67736;51.978;5.656;2023-06-14T02:44:45;20.2;39.8
78438;SHT31;67736;51.978;5.656;2023-06-14T02:47:18;20.2;40.0
78438;SHT31;67736;51.978;5.656;2023-06-14T02:49:48;20.2;39.9
78438;SHT31;67736;51.978;5.656;2023-06-14T02:52:20;20.1;40.0
78438;SHT31;67736;51.978;5.656;2023-06-14T02:54:49;20.1;40.0
78438;SHT31;67736;51.978;5.656;2023-06-14T02:57:19;20.1;40.1
78438;SHT31;67736;51.978;5.656;2023-06-14T02:59:49;20.1;40.2
78438;SHT31;67736;51.978;5.656;2023-06-14T03:02:21;20.1;40.3
78438;SHT31;67736;51.978;5.656;2023-06-14T03:04:51;20.1;40.3
78438;SHT31;67736;51.978;5.656;2023-06-14T03:07:21;20.1;40.3
78438;SHT31;67736;51.978;5.656;2023-06-14T03:09:53;20.1;40.2
78438;SHT31;67736;51.978;5.656;2023-06-14T03:12:22;20.1;40.3
78438;SHT31;67736;51.978;5.656;2023-06-14T03:14:52;20.0;40.3
78438;SHT31;67736;51.978;5.656;2023-06-14T03:17:24;20.0;40.6
78438;SHT31;67736;51.978;5.656;2023-06-14T03:19:57;20.0;40.4
78438;SHT31;67736;51.978;5.656;2023-06-14T03:22:26;20.0;40.5
78438;SHT31;67736;51.978;5.656;2023-06-14T03:24:56;20.0;40.5
78438;SHT31;67736;51.978;5.656;2023-06-14T03:27:26;19.9;40.7
78438;SHT31;67736;51.978;5.656;2023-06-14T03:29:57;19.9;40.6
78438;SHT31;67736;51.978;5.656;2023-06-14T03:32:27;19.9;40.9
78438;SHT31;67736;51.978;5.656;2023-06-14T03:35:00;19.9;40.9
78438;SHT31;67736;51.978;5.656;2023-06-14T03:37:30;19.9;41.0
78438;SHT31;67736;51.978;5.656;2023-06-14T03:39:59;19.9;41.1
78438;SHT31;67736;51.978;5.656;2023-06-14T03:42:33;19.9;40.9
78438;SHT31;67736;51.978;5.656;2023-06-14T03:45:03;19.9;41.2
78438;SHT31;67736;51.978;5.656;2023-06-14T03:47:35;19.8;41.1
78438;SHT31;67736;51.978;5.656;2023-06-14T03:50:05;19.8;41.1
78438;SHT31;67736;51.978;5.656;2023-06-14T03:52:37;19.8;41.2
78438;SHT31;67736;51.978;5.656;2023-06-14T03:55:08;19.7;41.5
78438;SHT31;67736;51.978;5.656;2023-06-14T03:57:37;19.7;41.6
78438;SHT31;67736;51.978;5.656;2023-06-14T04:00:09;19.6;41.6
78438;SHT31;67736;51.978;5.656;2023-06-14T04:02:40;19.6;41.8
78438;SHT31;67736;51.978;5.656;2023-06-14T04:05:11;19.6;41.9
78438;SHT31;67736;51.978;5.656;2023-06-14T04:07:41;19.5;42.0
78438;SHT31;67736;51.978;5.656;2023-06-14T04:10:13;19.5;42.2
78438;SHT31;67736;51.978;5.656;2023-06-14T04:12:43;19.5;42.2
78438;SHT31;67736;51.978;5.656;2023-06-14T04:15:12;19.5;42.4
78438;SHT31;67736;51.978;5.656;2023-06-14T04:17:44;19.5;42.4
78438;SHT31;67736;51.978;5.656;2023-06-14T04:20:13;19.4;42.7
78438;SHT31;67736;51.978;5.656;2023-06-14T04:22:44;19.4;42.6
78438;SHT31;67736;51.978;5.656;2023-06-14T04:25:14;19.4;42.8
78438;SHT31;67736;51.978;5.656;2023-06-14T04:27:44;19.4;42.8
78438;SHT31;67736;51.978;5.656;2023-06-14T04:30:14;19.4;42.9
78438;SHT31;67736;51.978;5.656;2023-06-14T04:32:44;19.4;42.8
78438;SHT31;67736;51.978;5.656;2023-06-14T04:35:14;19.4;42.9
78438;SHT31;67736;51.978;5.656;2023-06-14T04:37:44;19.4;43.2
78438;SHT31;67736;51.978;5.656;2023-06-14T04:40:14;19.4;43.1
78438;SHT31;67736;51.978;5.656;2023-06-14T04:42:43;19.4;43.2
78438;SHT31;67736;51.978;5.656;2023-06-14T04:45:15;19.4;43.3
78438;SHT31;67736;51.978;5.656;2023-06-14T04:47:45;19.4;43.2
78438;SHT31;67736;51.978;5.656;2023-06-14T04:50:16;19.4;43.2
78438;SHT31;67736;51.978;5.656;2023-06-14T04:52:48;19.4;43.5
78438;SHT31;67736;51.978;5.656;2023-06-14T04:55:18;19.4;43.7
78438;SHT31;67736;51.978;5.656;2023-06-14T04:57:48;19.4;43.2
78438;SHT31;67736;51.978;5.656;2023-06-14T05:00:21;19.4;43.3
78438;SHT31;67736;51.978;5.656;2023-06-14T05:02:50;19.4;43.2
78438;SHT31;67736;51.978;5.656;2023-06-14T05:05:20;19.4;43.6
78438;SHT31;67736;51.978;5.656;2023-06-14T05:07:50;19.3;43.3
78438;SHT31;67736;51.978;5.656;2023-06-14T05:10:19;19.3;43.6
78438;SHT31;67736;51.978;5.656;2023-06-14T05:12:49;19.3;43.7
78438;SHT31;67736;51.978;5.656;2023-06-14T05:15:20;19.3;43.6
78438;SHT31;67736;51.978;5.656;2023-06-14T05:17:55;19.3;43.5
78438;SHT31;67736;51.978;5.656;2023-06-14T05:20:25;19.3;43.7
78438;SHT31;67736;51.978;5.656;2023-06-14T05:22:56;19.3;43.7
78438;SHT31;67736;51.978;5.656;2023-06-14T05:25:25;19.3;43.8
78438;SHT31;67736;51.978;5.656;2023-06-14T05:27:55;19.3;43.8
78438;SHT31;67736;51.978;5.656;2023-06-14T05:30:25;19.3;44.1
78438;SHT31;67736;51.978;5.656;2023-06-14T05:32:57;19.4;44.1
78438;SHT31;67736;51.978;5.656;2023-06-14T05:35:26;19.4;43.7
78438;SHT31;67736;51.978;5.656;2023-06-14T05:37:56;19.4;43.9
78438;SHT31;67736;51.978;5.656;2023-06-14T05:40:27;19.5;43.8
78438;SHT31;67736;51.978;5.656;2023-06-14T05:42:56;19.5;43.6
78438;SHT31;67736;51.978;5.656;2023-06-14T05:45:26;19.6;43.9
78438;SHT31;67736;51.978;5.656;2023-06-14T05:47:57;19.6;43.8
78438;SHT31;67736;51.978;5.656;2023-06-14T05:50:26;19.7;43.5
78438;SHT31;67736;51.978;5.656;2023-06-14T05:52:58;19.7;43.9
78438;SHT31;67736;51.978;5.656;2023-06-14T05:55:27;19.8;43.9
78438;SHT31;67736;51.978;5.656;2023-06-14T05:57:57;19.8;43.3
78438;SHT31;67736;51.978;5.656;2023-06-14T06:00:26;19.9;43.3
78438;SHT31;67736;51.978;5.656;2023-06-14T06:02:56;19.9;43.2
78438;SHT31;67736;51.978;5.656;2023-06-14T06:05:26;20.0;43.1
78438;SHT31;67736;51.978;5.656;2023-06-14T06:07:56;20.1;42.9
78438;SHT31;67736;51.978;5.656;2023-06-14T06:10:25;20.1;42.5
78438;SHT31;67736;51.978;5.656;2023-06-14T06:12:55;20.2;42.1
78438;SHT31;67736;51.978;5.656;2023-06-14T06:15:27;20.3;42.3
78438;SHT31;67736;51.978;5.656;2023-06-14T06:17:57;20.3;42.6
78438;SHT31;67736;51.978;5.656;2023-06-14T06:20:27;20.4;42.0
78438;SHT31;67736;51.978;5.656;2023-06-14T06:22:59;20.5;41.4
78438;SHT31;67736;51.978;5.656;2023-06-14T06:25:28;20.6;41.3
78438;SHT31;67736;51.978;5.656;2023-06-14T06:27:59;20.7;40.7
78438;SHT31;67736;51.978;5.656;2023-06-14T06:30:28;20.8;40.5
78438;SHT31;67736;51.978;5.656;2023-06-14T06:32:58;20.9;40.3
78438;SHT31;67736;51.978;5.656;2023-06-14T06:35:28;20.9;40.6
78438;SHT31;67736;51.978;5.656;2023-06-14T06:37:59;21.0;40.9
78438;SHT31;67736;51.978;5.656;2023-06-14T06:40:30;21.1;40.6
78438;SHT31;67736;51.978;5.656;2023-06-14T06:42:59;21.1;40.5
78438;SHT31;67736;51.978;5.656;2023-06-14T06:45:29;21.2;40.8
78438;SHT31;67736;51.978;5.656;2023-06-14T06:47:58;21.3;40.7
78438;SHT31;67736;51.978;5.656;2023-06-14T06:50:28;21.4;39.8
78438;SHT31;67736;51.978;5.656;2023-06-14T06:52:57;21.5;40.2
78438;SHT31;67736;51.978;5.656;2023-06-14T06:55:27;21.6;40.4
78438;SHT31;67736;51.978;5.656;2023-06-14T06:57:57;21.7;39.1
78438;SHT31;67736;51.978;5.656;2023-06-14T07:00:27;21.7;39.8
78438;SHT31;67736;51.978;5.656;2023-06-14T07:02:57;21.8;39.4
78438;SHT31;67736;51.978;5.656;2023-06-14T07:05:27;21.9;39.3
78438;SHT31;67736;51.978;5.656;2023-06-14T07:07:56;22.0;39.4
78438;SHT31;67736;51.978;5.656;2023-06-14T07:10:26;22.1;38.9
78438;SHT31;67736;51.978;5.656;2023-06-14T07:12:58;22.1;38.3
78438;SHT31;67736;51.978;5.656;2023-06-14T07:15:27;22.2;38.1
78438;SHT31;67736;51.978;5.656;2023-06-14T07:17:57;22.3;38.0
78438;SHT31;67736;51.978;5.656;2023-06-14T07:20:27;22.3;38.0
78438;SHT31;67736;51.978;5.656;2023-06-14T07:22:58;22.4;38.1
78438;SHT31;67736;51.978;5.656;2023-06-14T07:25:28;22.5;37.7
78438;SHT31;67736;51.978;5.656;2023-06-14T07:27:57;22.5;38.2
78438;SHT31;67736;51.978;5.656;2023-06-14T07:30:27;22.6;37.9
78438;SHT31;67736;51.978;5.656;2023-06-14T07:32:57;22.8;37.1
78438;SHT31;67736;51.978;5.656;2023-06-14T07:35:27;22.9;36.8
78438;SHT31;67736;51.978;5.656;2023-06-14T07:37:58;22.9;36.5
78438;SHT31;67736;51.978;5.656;2023-06-14T07:40:28;23.0;36.5
78438;SHT31;67736;51.978;5.656;2023-06-14T07:42:57;23.2;36.4
78438;SHT31;67736;51.978;5.656;2023-06-14T07:45:29;23.3;35.7
78438;SHT31;67736;51.978;5.656;2023-06-14T07:47:58;23.5;35.6
78438;SHT31;67736;51.978;5.656;2023-06-14T07:50:30;23.6;35.3
78438;SHT31;67736;51.978;5.656;2023-06-14T07:53:00;23.9;34.7
78438;SHT31;67736;51.978;5.656;2023-06-14T07:55:31;24.1;34.6
78438;SHT31;67736;51.978;5.656;2023-06-14T07:58:05;24.3;33.6
78438;SHT31;67736;51.978;5.656;2023-06-14T08:00:35;24.6;33.1
78438;SHT31;67736;51.978;5.656;2023-06-14T08:03:05;24.8;33.1
78438;SHT31;67736;51.978;5.656;2023-06-14T08:05:35;25.0;32.9
78438;SHT31;67736;51.978;5.656;2023-06-14T08:08:06;25.3;33.0
78438;SHT31;67736;51.978;5.656;2023-06-14T08:10:35;25.5;32.9
78438;SHT31;67736;51.978;5.656;2023-06-14T08:13:05;25.8;32.9
78438;SHT31;67736;51.978;5.656;2023-06-14T08:15:34;26.1;31.9
78438;SHT31;67736;51.978;5.656;2023-06-14T08:18:04;26.4;31.4
78438;SHT31;67736;51.978;5.656;2023-06-14T08:20:34;26.6;30.9
78438;SHT31;67736;51.978;5.656;2023-06-14T08:23:05;27.0;30.5
78438;SHT31;67736;51.978;5.656;2023-06-14T08:25:36;27.3;30.1
78438;SHT31;67736;51.978;5.656;2023-06-14T08:28:06;27.5;28.9
78438;SHT31;67736;51.978;5.656;2023-06-14T08:30:37;27.8;28.7
78438;SHT31;67736;51.978;5.656;2023-06-14T08:33:07;28.0;27.2
78438;SHT31;67736;51.978;5.656;2023-06-14T08:35:37;28.1;27.0
78438;SHT31;67736;51.978;5.656;2023-06-14T08:38:07;28.2;26.8
78438;SHT31;67736;51.978;5.656;2023-06-14T08:40:37;28.3;27.4
78438;SHT31;67736;51.978;5.656;2023-06-14T08:43:07;28.5;27.6
78438;SHT31;67736;51.978;5.656;2023-06-14T08:45:37;28.7;26.9
78438;SHT31;67736;51.978;5.656;2023-06-14T08:48:08;28.9;26.2
78438;SHT31;67736;51.978;5.656;2023-06-14T08:50:40;29.0;26.3
78438;SHT31;67736;51.978;5.656;2023-06-14T08:53:14;29.1;26.3
78438;SHT31;67736;51.978;5.656;2023-06-14T08:55:50;29.2;25.7
78438;SHT31;67736;51.978;5.656;2023-06-14T08:58:21;29.4;24.9
78438;SHT31;67736;51.978;5.656;2023-06-14T09:00:53;29.5;24.8
78438;SHT31;67736;51.978;5.656;2023-06-14T09:03:23;29.6;24.4
78438;SHT31;67736;51.978;5.656;2023-06-14T09:05:58;29.8;25.0
78438;SHT31;67736;51.978;5.656;2023-06-14T09:08:28;29.9;24.9
78438;SHT31;67736;51.978;5.656;2023-06-14T09:11:01;30.1;24.4
78438;SHT31;67736;51.978;5.656;2023-06-14T09:13:31;30.4;24.4
78438;SHT31;67736;51.978;5.656;2023-06-14T09:16:00;30.7;24.8
78438;SHT31;67736;51.978;5.656;2023-06-14T09:18:36;31.0;23.6
78438;SHT31;67736;51.978;5.656;2023-06-14T09:21:08;31.3;23.0
78438;SHT31;67736;51.978;5.656;2023-06-14T09:23:39;31.4;22.0
78438;SHT31;67736;51.978;5.656;2023-06-14T09:26:11;31.5;21.8
78438;SHT31;67736;51.978;5.656;2023-06-14T09:28:43;31.5;21.6
78438;SHT31;67736;51.978;5.656;2023-06-14T09:31:14;31.6;21.8
78438;SHT31;67736;51.978;5.656;2023-06-14T09:33:45;31.6;22.1
78438;SHT31;67736;51.978;5.656;2023-06-14T09:36:20;31.8;21.7
78438;SHT31;67736;51.978;5.656;2023-06-14T09:38:55;31.9;21.7
78438;SHT31;67736;51.978;5.656;2023-06-14T09:41:33;32.0;22.1
78438;SHT31;67736;51.978;5.656;2023-06-14T09:44:04;32.1;21.0
78438;SHT31;67736;51.978;5.656;2023-06-14T09:46:35;32.2;21.1
78438;SHT31;67736;51.978;5.656;2023-06-14T09:49:06;32.3;20.9
78438;SHT31;67736;51.978;5.656;2023-06-14T09:51:40;32.4;21.3
78438;SHT31;67736;51.978;5.656;2023-06-14T09:54:15;32.5;20.0
78438;SHT31;67736;51.978;5.656;2023-06-14T09:56:48;32.5;20.5
78438;SHT31;67736;51.978;5.656;2023-06-14T09:59:27;32.6;21.0
78438;SHT31;67736;51.978;5.656;2023-06-14T10:02:09;32.6;20.8
78438;SHT31;67736;51.978;5.656;2023-06-14T10:04:46;32.6;20.8
78438;SHT31;67736;51.978;5.656;2023-06-14T10:07:20;32.7;21.5
78438;SHT31;67736;51.978;5.656;2023-06-14T10:09:54;32.7;20.9
78438;SHT31;67736;51.978;5.656;2023-06-14T10:12:24;32.7;20.9
78438;SHT31;67736;51.978;5.656;2023-06-14T10:14:55;32.7;20.5
78438;SHT31;67736;51.978;5.656;2023-06-14T10:17:33;32.6;20.9
78438;SHT31;67736;51.978;5.656;2023-06-14T10:20:20;32.4;21.1
78438;SHT31;67736;51.978;5.656;2023-06-14T10:22:57;32.3;21.4
78438;SHT31;67736;51.978;5.656;2023-06-14T10:25:28;32.3;21.5
78438;SHT31;67736;51.978;5.656;2023-06-14T10:28:18;32.2;21.9
78438;SHT31;67736;51.978;5.656;2023-06-14T10:31:07;32.2;21.3
78438;SHT31;67736;51.978;5.656;2023-06-14T10:33:39;32.2;21.3
78438;SHT31;67736;51.978;5.656;2023-06-14T10:36:27;32.2;21.5
78438;SHT31;67736;51.978;5.656;2023-06-14T10:39:06;32.2;21.8
78438;SHT31;67736;51.978;5.656;2023-06-14T10:41:38;32.1;22.0
78438;SHT31;67736;51.978;5.656;2023-06-14T10:46:15;32.1;21.8
78438;SHT31;67736;51.978;5.656;2023-06-14T10:48:45;31.9;22.3
78438;SHT31;67736;51.978;5.656;2023-06-14T10:51:19;31.9;21.7
78438;SHT31;67736;51.978;5.656;2023-06-14T10:53:50;31.7;21.8
78438;SHT31;67736;51.978;5.656;2023-06-14T10:56:29;31.6;21.9
78438;SHT31;67736;51.978;5.656;2023-06-14T10:59:00;31.5;22.1
78438;SHT31;67736;51.978;5.656;2023-06-14T11:01:45;31.3;22.7
78438;SHT31;67736;51.978;5.656;2023-06-14T11:04:20;31.1;22.7
78438;SHT31;67736;51.978;5.656;2023-06-14T11:06:50;31.0;22.7
78438;SHT31;67736;51.978;5.656;2023-06-14T11:09:50;30.8;22.5
78438;SHT31;67736;51.978;5.656;2023-06-14T11:12:23;30.7;22.3
78438;SHT31;67736;51.978;5.656;2023-06-14T11:14:54;30.5;23.2
78438;SHT31;67736;51.978;5.656;2023-06-14T11:17:25;30.3;23.1
78438;SHT31;67736;51.978;5.656;2023-06-14T11:20:09;30.2;23.0
78438;SHT31;67736;51.978;5.656;2023-06-14T11:22:43;30.1;22.8
78438;SHT31;67736;51.978;5.656;2023-06-14T11:25:14;30.0;23.2
78438;SHT31;67736;51.978;5.656;2023-06-14T11:27:44;30.0;23.8
78438;SHT31;67736;51.978;5.656;2023-06-14T11:30:14;29.9;23.1
78438;SHT31;67736;51.978;5.656;2023-06-14T11:32:46;29.9;23.7
78438;SHT31;67736;51.978;5.656;2023-06-14T11:35:17;29.9;23.1
78438;SHT31;67736;51.978;5.656;2023-06-14T11:37:48;29.8;23.3
78438;SHT31;67736;51.978;5.656;2023-06-14T11:40:19;29.8;23.5
78438;SHT31;67736;51.978;5.656;2023-06-14T11:42:49;29.6;23.1
78438;SHT31;67736;51.978;5.656;2023-06-14T11:45:19;29.5;23.7
78438;SHT31;67736;51.978;5.656;2023-06-14T11:47:49;29.4;23.8
78438;SHT31;67736;51.978;5.656;2023-06-14T11:50:18;29.4;23.4
78438;SHT31;67736;51.978;5.656;2023-06-14T11:52:54;29.3;24.2
78438;SHT31;67736;51.978;5.656;2023-06-14T11:55:25;29.2;23.5
78438;SHT31;67736;51.978;5.656;2023-06-14T11:57:57;29.1;24.1
78438;SHT31;67736;51.978;5.656;2023-06-14T12:00:27;29.0;24.5
78438;SHT31;67736;51.978;5.656;2023-06-14T12:02:58;28.9;25.0
78438;SHT31;67736;51.978;5.656;2023-06-14T12:05:28;28.8;24.8
78438;SHT31;67736;51.978;5.656;2023-06-14T12:08:03;28.8;24.4
78438;SHT31;67736;51.978;5.656;2023-06-14T12:10:41;28.7;24.7
78438;SHT31;67736;51.978;5.656;2023-06-14T12:13:12;28.6;25.1
78438;SHT31;67736;51.978;5.656;2023-06-14T12:15:42;28.6;25.0
78438;SHT31;67736;51.978;5.656;2023-06-14T12:18:12;28.6;25.3
78438;SHT31;67736;51.978;5.656;2023-06-14T12:20:42;28.5;25.5
78438;SHT31;67736;51.978;5.656;2023-06-14T12:23:13;28.4;26.0
78438;SHT31;67736;51.978;5.656;2023-06-14T12:25:43;28.3;26.2
78438;SHT31;67736;51.978;5.656;2023-06-14T12:28:13;28.2;26.3
78438;SHT31;67736;51.978;5.656;2023-06-14T12:30:43;28.1;26.9
78438;SHT31;67736;51.978;5.656;2023-06-14T12:33:12;28.0;26.8
78438;SHT31;67736;51.978;5.656;2023-06-14T12:35:43;28.0;27.2
78438;SHT31;67736;51.978;5.656;2023-06-14T12:38:15;28.0;27.6
78438;SHT31;67736;51.978;5.656;2023-06-14T12:40:45;28.0;27.4
78438;SHT31;67736;51.978;5.656;2023-06-14T12:43:15;28.0;27.0
78438;SHT31;67736;51.978;5.656;2023-06-14T12:45:44;28.0;26.4
78438;SHT31;67736;51.978;5.656;2023-06-14T12:48:14;28.0;26.8
78438;SHT31;67736;51.978;5.656;2023-06-14T12:50:47;28.0;26.4
78438;SHT31;67736;51.978;5.656;2023-06-14T12:53:18;28.0;26.2
78438;SHT31;67736;51.978;5.656;2023-06-14T12:55:49;28.0;26.3
78438;SHT31;67736;51.978;5.656;2023-06-14T12:58:18;28.0;26.5
78438;SHT31;67736;51.978;5.656;2023-06-14T13:00:53;28.0;26.4
78438;SHT31;67736;51.978;5.656;2023-06-14T13:03:24;28.0;24.8
78438;SHT31;67736;51.978;5.656;2023-06-14T13:05:54;28.0;25.5
78438;SHT31;67736;51.978;5.656;2023-06-14T13:08:23;28.0;26.0
78438;SHT31;67736;51.978;5.656;2023-06-14T13:10:53;27.9;26.5
78438;SHT31;67736;51.978;5.656;2023-06-14T13:13:23;27.9;26.2
78438;SHT31;67736;51.978;5.656;2023-06-14T13:15:52;27.8;26.6
78438;SHT31;67736;51.978;5.656;2023-06-14T13:18:22;27.8;26.6
78438;SHT31;67736;51.978;5.656;2023-06-14T13:20:52;27.7;27.2
78438;SHT31;67736;51.978;5.656;2023-06-14T13:23:22;27.7;27.1
78438;SHT31;67736;51.978;5.656;2023-06-14T13:25:51;27.8;28.0
78438;SHT31;67736;51.978;5.656;2023-06-14T13:28:21;27.8;27.8
78438;SHT31;67736;51.978;5.656;2023-06-14T13:30:50;27.8;27.3
78438;SHT31;67736;51.978;5.656;2023-06-14T13:33:20;27.9;27.5
78438;SHT31;67736;51.978;5.656;2023-06-14T13:35:51;27.9;28.0
78438;SHT31;67736;51.978;5.656;2023-06-14T13:38:21;27.9;27.2
78438;SHT31;67736;51.978;5.656;2023-06-14T13:40:50;27.9;27.2
78438;SHT31;67736;51.978;5.656;2023-06-14T13:43:22;27.9;27.3
78438;SHT31;67736;51.978;5.656;2023-06-14T13:45:51;27.9;26.9
78438;SHT31;67736;51.978;5.656;2023-06-14T13:48:21;27.9;27.1
78438;SHT31;67736;51.978;5.656;2023-06-14T13:50:53;27.9;27.4
78438;SHT31;67736;51.978;5.656;2023-06-14T13:53:22;27.9;26.8
78438;SHT31;67736;51.978;5.656;2023-06-14T13:55:52;27.9;27.1
78438;SHT31;67736;51.978;5.656;2023-06-14T13:58:22;27.9;26.4
78438;SHT31;67736;51.978;5.656;2023-06-14T14:00:52;27.9;25.9
78438;SHT31;67736;51.978;5.656;2023-06-14T14:03:21;27.8;26.6
78438;SHT31;67736;51.978;5.656;2023-06-14T14:05:51;27.8;26.1
78438;SHT31;67736;51.978;5.656;2023-06-14T14:08:21;27.8;25.9
78438;SHT31;67736;51.978;5.656;2023-06-14T14:10:51;27.8;26.1
78438;SHT31;67736;51.978;5.656;2023-06-14T14:13:20;27.8;26.9
78438;SHT31;67736;51.978;5.656;2023-06-14T14:15:50;27.8;27.0
78438;SHT31;67736;51.978;5.656;2023-06-14T14:18:20;27.8;26.8
78438;SHT31;67736;51.978;5.656;2023-06-14T14:20:52;27.8;26.8
78438;SHT31;67736;51.978;5.656;2023-06-14T14:23:22;27.7;27.0
78438;SHT31;67736;51.978;5.656;2023-06-14T14:25:52;27.8;26.0
78438;SHT31;67736;51.978;5.656;2023-06-14T14:28:21;27.8;26.3
78438;SHT31;67736;51.978;5.656;2023-06-14T14:30:51;27.8;26.6
78438;SHT31;67736;51.978;5.656;2023-06-14T14:33:23;27.7;27.0
78438;SHT31;67736;51.978;5.656;2023-06-14T14:35:52;27.7;27.4
78438;SHT31;67736;51.978;5.656;2023-06-14T14:38:25;27.7;27.2
78438;SHT31;67736;51.978;5.656;2023-06-14T14:40:54;27.7;27.0
78438;SHT31;67736;51.978;5.656;2023-06-14T14:43:24;27.8;26.7
78438;SHT31;67736;51.978;5.656;2023-06-14T14:45:54;27.8;27.1
78438;SHT31;67736;51.978;5.656;2023-06-14T14:48:23;27.8;26.9
78438;SHT31;67736;51.978;5.656;2023-06-14T14:50:53;27.7;26.9
78438;SHT31;67736;51.978;5.656;2023-06-14T14:53:23;27.7;27.1
78438;SHT31;67736;51.978;5.656;2023-06-14T14:55:52;27.7;27.0
78438;SHT31;67736;51.978;5.656;2023-06-14T14:58:22;27.7;27.5
78438;SHT31;67736;51.978;5.656;2023-06-14T15:00:53;27.7;26.7
78438;SHT31;67736;51.978;5.656;2023-06-14T15:03:22;27.7;27.3
78438;SHT31;67736;51.978;5.656;2023-06-14T15:05:52;27.7;27.4
78438;SHT31;67736;51.978;5.656;2023-06-14T15:08:23;27.6;27.4
78438;SHT31;67736;51.978;5.656;2023-06-14T15:10:53;27.6;26.7
78438;SHT31;67736;51.978;5.656;2023-06-14T15:13:22;27.7;27.0
78438;SHT31;67736;51.978;5.656;2023-06-14T15:15:52;27.7;26.5
78438;SHT31;67736;51.978;5.656;2023-06-14T15:18:22;27.7;25.6
78438;SHT31;67736;51.978;5.656;2023-06-14T15:20:51;27.8;25.7
78438;SHT31;67736;51.978;5.656;2023-06-14T15:23:21;27.8;25.3
78438;SHT31;67736;51.978;5.656;2023-06-14T15:25:51;27.8;25.7
78438;SHT31;67736;51.978;5.656;2023-06-14T15:28:21;27.8;25.5
78438;SHT31;67736;51.978;5.656;2023-06-14T15:30:56;27.8;26.1
78438;SHT31;67736;51.978;5.656;2023-06-14T15:33:26;27.8;26.5
78438;SHT31;67736;51.978;5.656;2023-06-14T15:35:55;27.8;26.5
78438;SHT31;67736;51.978;5.656;2023-06-14T15:38:28;27.8;26.7
78438;SHT31;67736;51.978;5.656;2023-06-14T15:40:59;27.8;26.8
78438;SHT31;67736;51.978;5.656;2023-06-14T15:43:29;27.8;26.6
78438;SHT31;67736;51.978;5.656;2023-06-14T15:45:58;27.8;25.9
78438;SHT31;67736;51.978;5.656;2023-06-14T15:48:30;27.7;26.4
78438;SHT31;67736;51.978;5.656;2023-06-14T15:50:59;27.7;26.7
78438;SHT31;67736;51.978;5.656;2023-06-14T15:53:29;27.7;27.0
78438;SHT31;67736;51.978;5.656;2023-06-14T15:55:59;27.7;26.6
78438;SHT31;67736;51.978;5.656;2023-06-14T15:58:28;27.7;26.7
78438;SHT31;67736;51.978;5.656;2023-06-14T16:00:58;27.6;26.8
78438;SHT31;67736;51.978;5.656;2023-06-14T16:03:27;27.6;26.4
78438;SHT31;67736;51.978;5.656;2023-06-14T16:05:57;27.6;26.9
78438;SHT31;67736;51.978;5.656;2023-06-14T16:08:27;27.6;27.4
78438;SHT31;67736;51.978;5.656;2023-06-14T16:10:56;27.6;27.4
78438;SHT31;67736;51.978;5.656;2023-06-14T16:13:26;27.6;27.6
78438;SHT31;67736;51.978;5.656;2023-06-14T16:15:56;27.6;28.0
78438;SHT31;67736;51.978;5.656;2023-06-14T16:18:25;27.6;28.0
78438;SHT31;67736;51.978;5.656;2023-06-14T16:20:55;27.6;27.7
78438;SHT31;67736;51.978;5.656;2023-06-14T16:23:26;27.7;28.1
78438;SHT31;67736;51.978;5.656;2023-06-14T16:25:56;27.7;28.1
78438;SHT31;67736;51.978;5.656;2023-06-14T16:28:25;27.7;27.7